Terminal Aerodrome Forecast
Issued by NWS Wilmington, OH

Current Version | Previous Version | Text Only | Print | Product List | Glossary Off
Versions: 1 2 3 4 5 6 7 8 9 10 11 12 13 14 15 16 17 18 19 20 21 22 23 24 25 26 27 28 29

000
FTUS41 KILN 031500 AAA
TAFCMH
TAF AMD
KCMH 031513Z 0315/0412 13007KT 6SM -FZRA OVC035
      TEMPO 0315/0316 3SM -FZRA BR OVC022
     FM031600 14008KT 2SM -FZRA BR BKN008 OVC012
     FM031900 18011KT 5SM -SHRA BR BKN018 OVC035
     FM032300 22012G20KT 4SM -SHRA BR BKN008 OVC025
     FM040500 27010KT 4SM -SHRA BR OVC007=

USA.gov is the U.S. government's official web portal to all federal, state and local government web resources and services.